Time;durP1;ratioP1;P1;durP2;ratioP2;P2;SDS_P1;SDS_P2;PMS_P1;PMS_P2;Temp;Humidity;BMP_temperature;BMP_pressure;BME280_temperature;BME280_humidity;BME280_pressure;Samples;Min_cycle;Max_cycle;Signal;HPM_P1;HPM_P2
2024/04/04 00:01:33;;;;;;;15.10;5.30;;;;;;;10.92;62.40;92915.66;5089606;28;20121;-71
2024/04/04 00:03:59;;;;;;;14.82;5.35;;;;;;;11.11;62.58;92943.88;5093665;28;20157;-72
2024/04/04 00:06:25;;;;;;;16.40;5.75;;;;;;;10.81;62.46;92900.00;5089357;28;20374;-72
2024/04/04 00:08:50;;;;;;;22.98;6.13;;;;;;;10.73;62.81;92889.25;5088581;28;20439;-72
2024/04/04 00:11:17;;;;;;;20.33;6.82;;;;;;;10.79;62.77;92907.13;5089953;28;20609;-72
2024/04/04 00:13:43;;;;;;;19.35;6.68;;;;;;;10.80;63.03;92913.81;5092506;28;20024;-74
2024/04/04 00:16:09;;;;;;;;;;;;;;;11.09;62.82;92941.50;5091014;28;20043;-74
2024/04/04 00:18:34;;;;;;;19.33;5.70;;;;;;;10.73;63.36;92938.06;5089836;28;19916;-74
2024/04/04 00:21:00;;;;;;;15.02;6.38;;;;;;;10.49;63.27;92912.22;5091484;28;20032;-72
2024/04/04 00:23:25;;;;;;;18.38;6.10;;;;;;;10.57;63.39;92942.78;5089119;28;20093;-72
2024/04/04 00:25:51;;;;;;;15.82;5.88;;;;;;;10.53;63.23;92946.75;5088989;28;20488;-72
2024/04/04 00:28:17;;;;;;;13.70;5.80;;;;;;;10.23;63.55;92898.69;5089288;28;20108;-72
2024/04/04 00:30:42;;;;;;;15.05;6.18;;;;;;;10.37;63.66;92915.50;5090772;28;20032;-74
2024/04/04 00:33:08;;;;;;;18.65;6.10;;;;;;;10.46;64.13;92931.44;5091162;28;20116;-74
2024/04/04 00:35:33;;;;;;;17.35;6.53;;;;;;;10.23;63.96;92899.47;5094892;28;20423;-74
2024/04/04 00:37:58;;;;;;;15.70;5.88;;;;;;;9.93;64.38;92860.91;5089526;28;20123;-74
2024/04/04 00:40:24;;;;;;;14.30;5.70;;;;;;;10.16;64.77;92888.50;5090452;28;20043;-74
2024/04/04 00:42:50;;;;;;;16.40;5.65;;;;;;;10.41;64.55;92928.69;5088473;28;20028;-74
2024/04/04 00:45:16;;;;;;;20.33;7.03;;;;;;;10.21;65.00;92898.09;5070914;28;20547;-74
2024/04/04 00:47:47;;;;;;;20.80;6.57;;;;;;;10.12;65.66;92893.28;5089477;28;20139;-74
2024/04/04 00:50:14;;;;;;;17.85;7.15;;;;;;;10.24;65.54;92929.25;5092864;28;20051;-74
2024/04/04 00:52:39;;;;;;;19.52;6.13;;;;;;;10.15;65.25;92923.63;5088516;28;20467;-72
2024/04/04 00:55:06;;;;;;;22.20;7.20;;;;;;;10.18;65.93;92935.25;5088002;28;20107;-72
2024/04/04 00:57:32;;;;;;;18.73;5.90;;;;;;;9.85;65.87;92883.28;5090496;28;20050;-72
2024/04/04 00:59:58;;;;;;;20.63;6.68;;;;;;;9.88;66.17;92900.84;5088323;28;20069;-72
2024/04/04 01:02:24;;;;;;;19.88;6.63;;;;;;;9.74;66.61;92884.78;5092727;28;20036;-72
2024/04/04 01:04:49;;;;;;;18.67;5.80;;;;;;;9.63;66.07;92885.47;5095461;28;21132;-72
2024/04/04 01:07:15;;;;;;;14.35;5.05;;;;;;;9.75;66.81;92903.50;5088287;28;20042;-72
2024/04/04 01:09:42;;;;;;;;;;;;;;;9.99;66.70;92934.44;5088747;28;20056;-72
2024/04/04 01:12:08;;;;;;;9.35;3.85;;;;;;;9.55;67.18;92899.34;5090537;28;19961;-74
2024/04/04 01:14:34;;;;;;;13.20;5.10;;;;;;;9.11;67.34;92837.03;5088442;28;20318;-74
2024/04/04 01:17:00;;;;;;;12.50;4.38;;;;;;;9.78;67.50;92944.13;5104768;28;20040;-72
2024/04/04 01:19:25;;;;;;;12.18;4.03;;;;;;;9.50;67.79;92901.75;5087319;28;20142;-74
2024/04/04 01:21:51;;;;;;;10.82;3.70;;;;;;;9.80;67.55;92941.34;5087703;28;20032;-74
2024/04/04 01:24:16;;;;;;;9.00;4.88;;;;;;;9.77;67.84;92940.00;5093622;28;20044;-74
2024/04/04 01:26:42;;;;;;;9.10;3.33;;;;;;;9.68;68.34;92942.03;5089950;28;20158;-74
2024/04/04 01:29:07;;;;;;;10.88;3.75;;;;;;;9.38;69.09;92911.09;5092136;28;20043;-72
2024/04/04 01:31:33;;;;;;;7.13;3.20;;;;;;;9.12;68.79;92910.31;5089340;28;20839;-74
2024/04/04 01:33:58;;;;;;;8.82;3.85;;;;;;;9.46;68.22;92951.88;5092899;28;20126;-75
2024/04/04 01:36:24;;;;;;;6.95;2.88;;;;;;;9.42;69.33;92964.34;5095994;28;20067;-75
2024/04/04 01:38:50;;;;;;;8.80;3.28;;;;;;;9.23;68.71;92918.13;5087751;28;20044;-75
2024/04/04 01:41:16;;;;;;;8.13;3.10;;;;;;;9.46;68.49;92937.28;5088137;28;20370;-75
2024/04/04 01:43:41;;;;;;;8.60;3.10;;;;;;;9.57;68.20;92952.97;5090137;28;20115;-75
2024/04/04 01:46:07;;;;;;;12.60;3.28;;;;;;;9.53;68.33;92946.72;5087775;28;20135;-74
2024/04/04 01:48:33;;;;;;;9.20;3.58;;;;;;;9.56;68.37;92956.53;5090054;28;20511;-75
2024/04/04 01:50:58;;;;;;;7.70;3.63;;;;;;;9.34;68.24;92913.31;5087944;28;20096;-75
2024/04/04 01:53:24;;;;;;;8.40;3.45;;;;;;;9.61;68.13;92949.00;5088070;28;20036;-75
2024/04/04 01:55:49;;;;;;;11.55;3.95;;;;;;;9.50;67.59;92924.84;5088379;28;20473;-74
2024/04/04 01:58:15;;;;;;;6.90;3.22;;;;;;;9.55;68.45;92937.03;5091900;28;20474;-75
2024/04/04 02:00:40;;;;;;;6.38;3.03;;;;;;;9.63;67.96;92954.72;5090541;28;20038;-74
2024/04/04 02:03:06;;;;;;;8.80;3.60;;;;;;;9.52;68.71;92940.78;5074279;28;20082;-75
2024/04/04 02:05:32;;;;;;;12.18;5.30;;;;;;;9.51;68.46;92946.91;5088264;28;20020;-75
2024/04/04 02:07:57;;;;;;;11.07;4.55;;;;;;;9.43;67.77;92934.34;5087538;28;20052;-75
2024/04/04 02:10:23;;;;;;;12.13;4.82;;;;;;;9.54;68.07;92949.03;5087498;28;20089;-75
2024/04/04 02:12:48;;;;;;;13.65;4.60;;;;;;;9.53;68.18;92947.47;5101802;28;20393;-74
2024/04/04 02:15:14;;;;;;;14.82;5.00;;;;;;;9.39;68.40;92931.41;5097893;28;20031;-74
2024/04/04 02:17:40;;;;;;;11.48;4.75;;;;;;;9.46;68.42;92949.31;5092764;28;20051;-74
2024/04/04 02:20:09;;;;;;;12.73;4.47;;;;;;;9.39;68.12;92951.91;5096287;28;20147;-74
2024/04/04 02:22:36;;;;;;;16.02;5.35;;;;;;;9.09;68.18;92901.28;5098101;28;20035;-74
2024/04/04 02:25:02;;;;;;;12.48;5.00;;;;;;;9.36;68.12;92948.00;5094660;28;20031;-74
2024/04/04 02:27:29;;;;;;;10.57;5.00;;;;;;;9.16;68.11;92924.31;5088464;28;20028;-74
2024/04/04 02:29:55;;;;;;;13.40;5.43;;;;;;;9.00;67.61;92908.44;5087137;28;20032;-74
2024/04/04 02:32:20;;;;;;;13.52;5.43;;;;;;;8.90;68.43;92900.41;5092328;28;20031;-72
2024/04/04 02:34:46;;;;;;;14.10;4.75;;;;;;;9.15;68.41;92935.53;5096151;28;20937;-71
2024/04/04 02:37:11;;;;;;;13.82;4.85;;;;;;;8.51;68.51;92837.19;5091952;28;20657;-71
2024/04/04 02:39:37;;;;;;;35.83;18.02;;;;;;;8.96;68.73;92907.25;5091558;28;20048;-74
2024/04/04 02:42:03;;;;;;;23.90;12.77;;;;;;;8.91;69.03;92912.22;5091241;28;20032;-72
2024/04/04 02:44:29;;;;;;;;;;;;;;;9.22;69.10;92957.56;5096578;28;20028;-73
2024/04/04 02:46:54;;;;;;;17.92;8.32;;;;;;;8.86;69.69;92925.66;5091172;28;19916;-74
2024/04/04 02:49:20;;;;;;;11.52;6.25;;;;;;;8.92;69.89;92932.50;5091320;28;20032;-75
2024/04/04 02:51:45;;;;;;;14.32;5.97;;;;;;;8.71;70.84;92908.00;5094143;28;20031;-74
2024/04/04 02:54:10;;;;;;;10.38;4.22;;;;;;;8.89;71.07;92952.63;5092607;28;20473;-74
2024/04/04 02:56:36;;;;;;;10.82;4.90;;;;;;;8.61;71.08;92916.13;5091075;28;20168;-73
2024/04/04 02:59:01;;;;;;;11.13;5.70;;;;;;;8.73;71.80;92962.34;5099392;28;20028;-74
2024/04/04 03:01:27;;;;;;;14.30;5.43;;;;;;;8.66;72.12;92949.56;5101916;28;20111;-74
2024/04/04 03:03:53;;;;;;;12.00;5.88;;;;;;;8.55;72.31;92922.84;5097367;28;20384;-74
2024/04/04 03:06:18;;;;;;;13.77;5.57;;;;;;;8.64;73.34;92940.53;5100873;28;20533;-74
2024/04/04 03:08:44;;;;;;;13.82;5.05;;;;;;;8.68;72.57;92934.81;5103875;28;20069;-74
2024/04/04 03:11:10;;;;;;;12.90;4.80;;;;;;;8.54;73.24;92921.28;5095234;28;20035;-74
2024/04/04 03:13:36;;;;;;;11.80;5.13;;;;;;;8.62;73.21;92942.50;5093524;28;20039;-72
2024/04/04 03:16:02;;;;;;;12.32;4.20;;;;;;;8.46;73.17;92928.38;5100823;28;20020;-72
2024/04/04 03:18:27;;;;;;;13.35;5.13;;;;;;;8.32;73.95;92907.94;5102248;28;20028;-72
2024/04/04 03:20:53;;;;;;;14.00;5.53;;;;;;;8.26;73.95;92909.56;5100613;28;20454;-72
2024/04/04 03:23:18;;;;;;;16.80;6.20;;;;;;;8.42;74.40;92941.56;5101358;28;20059;-73
2024/04/04 03:25:44;;;;;;;13.48;5.68;;;;;;;8.41;74.58;92944.34;5098589;28;20039;-72
2024/04/04 03:28:10;;;;;;;16.55;6.15;;;;;;;8.41;74.80;92947.69;5090458;28;20469;-72
2024/04/04 03:30:35;;;;;;;17.13;5.45;;;;;;;8.42;74.98;92949.25;5094466;28;20468;-72
2024/04/04 03:33:02;;;;;;;10.77;5.20;;;;;;;8.42;75.82;92944.13;5090117;28;20125;-72
2024/04/04 03:35:27;;;;;;;15.98;5.63;;;;;;;8.45;75.65;92953.19;5089882;28;20060;-72
2024/04/04 03:37:53;;;;;;;16.05;5.18;;;;;;;8.14;75.28;92917.06;5089882;28;20067;-72
2024/04/04 03:40:19;;;;;;;15.82;6.32;;;;;;;8.36;74.67;92946.72;5091600;28;20556;-73
2024/04/04 03:42:44;;;;;;;8.50;5.22;;;;;;;8.43;74.59;92962.84;5089341;28;20404;-72
2024/04/04 03:45:10;;;;;;;16.00;5.80;;;;;;;8.33;74.57;92942.78;5090183;28;20466;-72
2024/04/04 03:47:35;;;;;;;11.25;4.70;;;;;;;8.12;75.20;92900.34;5089652;28;20040;-72
2024/04/04 03:50:04;;;;;;;15.05;5.20;;;;;;;8.18;75.29;92914.13;5089973;28;20042;-72
2024/04/04 03:52:30;;;;;;;13.20;5.68;;;;;;;8.13;75.14;92910.38;5093571;28;20130;-72
2024/04/04 03:54:56;;;;;;;12.52;4.68;;;;;;;7.83;75.55;92869.16;5090084;28;20122;-72
2024/04/04 03:57:21;;;;;;;11.77;4.68;;;;;;;8.38;75.63;92963.44;5090555;28;20039;-72
2024/04/04 03:59:47;;;;;;;18.95;6.03;;;;;;;8.29;74.67;92944.19;5089991;28;20039;-72
2024/04/04 04:02:12;;;;;;;14.50;5.90;;;;;;;8.43;74.21;92955.94;5071317;28;20396;-72
2024/04/04 04:04:38;;;;;;;15.10;5.32;;;;;;;8.22;74.53;92918.63;5091086;28;20020;-72
2024/04/04 04:07:03;;;;;;;10.95;4.88;;;;;;;8.47;74.62;92961.44;5089826;28;20032;-72
2024/04/04 04:09:29;;;;;;;12.65;4.88;;;;;;;8.20;74.89;92919.81;5091652;28;20126;-72
2024/04/04 04:11:54;;;;;;;11.40;5.00;;;;;;;8.10;74.55;92921.00;5087333;28;20024;-72
2024/04/04 04:14:20;;;;;;;13.13;5.43;;;;;;;8.36;73.47;92959.50;5091042;28;20028;-72
2024/04/04 04:16:45;;;;;;;9.07;4.32;;;;;;;8.11;72.97;92921.81;5089238;28;20028;-72
2024/04/04 04:19:13;;;;;;;11.75;4.50;;;;;;;8.02;72.88;92916.88;5088964;28;20052;-72
2024/04/04 04:21:38;;;;;;;11.02;5.28;;;;;;;8.40;73.05;92976.03;5089995;28;20035;-72
2024/04/04 04:24:04;;;;;;;10.07;4.43;;;;;;;8.27;73.49;92962.31;5089689;28;20482;-72
2024/04/04 04:26:30;;;;;;;13.95;4.35;;;;;;;8.24;73.40;92965.25;5089180;28;20031;-72
2024/04/04 04:28:56;;;;;;;15.05;4.88;;;;;;;7.81;73.53;92907.69;5091568;28;20032;-72
2024/04/04 04:31:31;;;;;;;10.05;3.90;;;;;;;8.04;73.52;92939.72;5088810;28;20039;-72
2024/04/04 04:33:59;;;;;;;6.65;3.20;;;;;;;7.91;74.16;92943.06;5095123;28;20429;-72
2024/04/04 04:36:30;;;;;;;7.97;3.88;;;;;;;8.22;74.61;92986.91;5092836;28;20040;-72
2024/04/04 04:38:56;;;;;;;8.95;3.15;;;;;;;8.10;74.59;92977.28;5089294;28;20039;-72
2024/04/04 04:41:21;;;;;;;10.05;3.08;;;;;;;8.28;74.70;92993.78;5091458;28;20032;-72
2024/04/04 04:43:48;;;;;;;11.65;3.63;;;;;;;7.97;74.12;92949.19;5092967;28;20070;-72
2024/04/04 04:46:14;;;;;;;10.57;4.60;;;;;;;8.38;75.15;93004.38;5094320;28;20123;-72
2024/04/04 04:48:40;;;;;;;10.82;3.80;;;;;;;8.43;74.56;93001.25;5092366;28;20503;-72
2024/04/04 04:51:06;;;;;;;9.02;3.22;;;;;;;8.21;74.70;92962.31;5102195;28;20039;-72
2024/04/04 04:53:32;;;;;;;15.85;4.93;;;;;;;8.45;74.59;92990.78;5088873;28;20441;-72
2024/04/04 04:55:57;;;;;;;11.02;5.25;;;;;;;8.55;74.16;92998.84;5089124;28;20122;-72
2024/04/04 04:58:23;;;;;;;16.73;5.65;;;;;;;8.59;74.44;93004.34;5089155;28;20873;-72
2024/04/04 05:00:52;;;;;;;12.40;4.28;;;;;;;8.37;74.42;92972.09;5090092;28;20097;-72
2024/04/04 05:03:19;;;;;;;13.35;3.92;;;;;;;8.34;74.47;92974.28;5089888;28;20048;-72
2024/04/04 05:05:45;;;;;;;6.88;3.55;;;;;;;8.63;73.99;93008.88;5092280;28;20115;-72
2024/04/04 05:08:10;;;;;;;11.40;4.22;;;;;;;8.66;73.36;93007.69;5089268;28;20054;-72
2024/04/04 05:10:36;;;;;;;16.95;4.85;;;;;;;8.49;73.53;92979.16;5090686;28;20043;-72
2024/04/04 05:13:01;;;;;;;7.82;3.88;;;;;;;8.40;74.21;92973.47;5089859;28;20048;-72
2024/04/04 05:15:27;;;;;;;21.75;6.28;;;;;;;8.46;74.51;92971.91;5088858;28;20039;-72
2024/04/04 05:17:52;;;;;;;12.15;4.53;;;;;;;8.73;74.40;93017.91;5103125;28;20036;-72
2024/04/04 05:20:18;;;;;;;17.30;8.35;;;;;;;8.53;73.74;92981.13;5100403;28;20146;-72
2024/04/04 05:22:43;;;;;;;12.85;5.70;;;;;;;8.78;74.06;93016.31;5089997;28;20891;-72
2024/04/04 05:25:14;;;;;;;18.70;6.80;;;;;;;9.01;73.53;93029.59;5090634;28;20040;-72
2024/04/04 05:27:43;;;;;;;19.35;6.35;;;;;;;9.15;73.18;93023.44;5088536;28;20489;-72
2024/04/04 05:30:16;;;;;;;17.38;6.60;;;;;;;9.34;72.27;93026.09;5087168;28;20036;-72
2024/04/04 05:32:41;;;;;;;14.55;5.78;;;;;;;9.25;70.85;93001.72;5089699;28;20039;-71
2024/04/04 05:35:08;;;;;;;17.38;6.38;;;;;;;9.47;69.62;93000.38;5087944;28;20035;-72
2024/04/04 05:37:35;;;;;;;16.23;5.80;;;;;;;9.93;68.88;93040.50;5091630;28;20035;-72
2024/04/04 05:40:01;;;;;;;22.63;7.97;;;;;;;9.79;69.29;92996.22;5087964;28;20063;-72
2024/04/04 05:42:34;;;;;;;18.23;6.75;;;;;;;10.08;67.41;92999.13;5088095;28;20063;-72
2024/04/04 05:44:59;;;;;;;16.88;7.93;;;;;;;10.33;66.77;93022.22;5089585;28;20040;-72
2024/04/04 05:47:25;;;;;;;22.35;8.00;;;;;;;10.67;66.65;93038.09;5087835;28;20058;-72
2024/04/04 05:49:50;;;;;;;15.23;5.57;;;;;;;10.67;66.02;93009.03;5087613;28;20063;-72
2024/04/04 05:52:16;;;;;;;19.92;6.75;;;;;;;10.46;65.53;92940.94;5087647;28;20031;-72
2024/04/04 05:54:43;;;;;;;16.85;6.50;;;;;;;11.34;65.07;93039.06;5089460;28;20081;-72
2024/04/04 05:57:09;;;;;;;19.42;6.93;;;;;;;11.59;64.17;93034.78;5092731;28;20467;-73
2024/04/04 05:59:34;;;;;;;16.90;6.32;;;;;;;11.61;64.45;92996.75;5094552;28;20028;-72
2024/04/04 06:02:00;;;;;;;18.13;6.85;;;;;;;11.83;63.85;92986.72;5087687;28;20541;-73
2024/04/04 06:04:26;;;;;;;22.20;8.05;;;;;;;12.39;61.97;93030.22;5085296;28;21067;-73
2024/04/04 06:06:52;;;;;;;19.92;8.38;;;;;;;12.62;61.68;93035.56;5087067;28;20040;-72
2024/04/04 06:09:18;;;;;;;23.60;10.63;;;;;;;12.72;60.09;93011.81;5087800;28;20583;-72
2024/04/04 06:11:43;;;;;;;22.70;9.65;;;;;;;13.00;58.93;93036.06;5093355;28;20036;-73
2024/04/04 06:14:09;;;;;;;21.95;9.40;;;;;;;13.12;58.79;93039.38;5089767;28;20432;-73
2024/04/04 06:16:35;;;;;;;29.27;13.75;;;;;;;12.82;57.56;93002.47;5087606;28;20058;-73
2024/04/04 06:19:00;;;;;;;22.95;10.30;;;;;;;13.03;57.66;93043.31;5094735;28;20042;-73
2024/04/04 06:21:25;;;;;;;18.58;7.60;;;;;;;12.72;57.80;93046.06;5089766;28;20040;-73
2024/04/04 06:23:51;;;;;;;15.30;7.05;;;;;;;12.47;58.22;93038.59;5088626;28;20489;-72
2024/04/04 06:26:16;;;;;;;19.30;7.22;;;;;;;12.64;56.45;93029.16;5097200;28;20071;-72
2024/04/04 06:28:44;;;;;;;16.30;6.80;;;;;;;12.52;55.17;92951.91;5087716;28;20036;-72
2024/04/04 06:31:10;;;;;;;19.23;8.60;;;;;;;13.38;55.43;93016.59;5089361;28;20039;-72
2024/04/04 06:33:36;;;;;;;16.20;7.05;;;;;;;14.00;55.52;93043.47;5087835;28;20028;-73
2024/04/04 06:36:01;;;;;;;22.50;7.60;;;;;;;14.37;53.02;93044.00;5090854;28;20109;-72
2024/04/04 06:38:27;;;;;;;22.23;7.30;;;;;;;14.50;49.92;93017.84;5086720;28;20050;-72
2024/04/04 06:40:52;;;;;;;22.63;7.90;;;;;;;14.84;52.40;93019.56;5091509;28;20039;-73
2024/04/04 06:43:18;;;;;;;22.73;9.48;;;;;;;15.44;50.93;93057.72;5086549;28;20569;-72
2024/04/04 06:45:43;;;;;;;22.73;8.80;;;;;;;15.64;48.67;93044.19;5087496;28;20092;-72
2024/04/04 06:48:08;;;;;;;19.67;7.95;;;;;;;15.76;49.66;93012.97;5103404;28;20039;-72
2024/04/04 06:50:34;;;;;;;28.45;9.48;;;;;;;16.30;49.88;93043.19;5097110;28;20371;-73
2024/04/04 06:53:01;;;;;;;28.58;8.15;;;;;;;16.55;45.81;93057.34;5086923;28;20127;-73
2024/04/04 06:55:27;;;;;;;23.27;8.75;;;;;;;16.35;46.54;93049.44;5087950;28;22365;-72
2024/04/04 06:57:52;;;;;;;21.70;7.28;;;;;;;16.40;46.47;93023.56;5087961;28;20043;-73
2024/04/04 07:00:18;;;;;;;19.55;8.02;;;;;;;16.94;45.96;93052.91;5087244;28;20039;-73
2024/04/04 07:02:43;;;;;;;18.80;7.47;;;;;;;16.63;45.24;93040.56;5094612;28;20028;-73
2024/04/04 07:05:09;;;;;;;31.95;7.38;;;;;;;17.10;45.93;93056.34;5086788;28;20111;-73
2024/04/04 07:07:35;;;;;;;22.30;7.78;;;;;;;17.23;44.34;93052.50;5088342;28;20425;-73
2024/04/04 07:10:03;;;;;;;27.30;7.60;;;;;;;16.98;42.57;93040.19;5095870;28;20031;-73
2024/04/04 07:12:28;;;;;;;22.58;5.32;;;;;;;16.61;41.22;93029.63;5086024;28;20553;-73
2024/04/04 07:14:54;;;;;;;26.88;7.50;;;;;;;16.95;41.21;93033.69;5086910;28;20071;-73
2024/04/04 07:17:19;;;;;;;24.20;6.18;;;;;;;17.33;42.29;93043.97;5087935;28;20123;-73
2024/04/04 07:19:45;;;;;;;21.15;6.47;;;;;;;17.08;40.58;93035.06;5097884;28;20486;-73
2024/04/04 07:22:10;;;;;;;21.33;6.13;;;;;;;16.51;40.39;93032.97;5096259;28;20115;-73
2024/04/04 07:24:36;;;;;;;34.17;6.00;;;;;;;16.84;39.37;93027.66;5108286;28;20492;-73
2024/04/04 07:27:01;;;;;;;9.63;3.78;;;;;;;16.40;36.46;93070.22;5097634;28;20114;-73
2024/04/04 07:29:27;;;;;;;11.48;3.67;;;;;;;16.34;37.35;93069.38;5090270;28;20191;-73
2024/04/04 07:31:52;;;;;;;13.95;4.95;;;;;;;16.72;40.47;93027.09;5090657;28;20035;-73
2024/04/04 07:34:18;;;;;;;13.48;3.88;;;;;;;17.43;38.55;93051.78;5093503;28;20262;-73
2024/04/04 07:36:43;;;;;;;13.57;4.63;;;;;;;17.42;35.69;93039.84;5090360;28;20101;-73
2024/04/04 07:39:09;;;;;;;9.18;2.92;;;;;;;16.96;37.26;93038.59;5095908;28;20041;-73
2024/04/04 07:41:37;;;;;;;;;;;;;;;17.69;36.94;93072.59;5090411;28;20111;-73
2024/04/04 07:44:03;;;;;;;13.45;3.00;;;;;;;16.96;35.61;93038.59;5102640;28;19922;-72
2024/04/04 07:46:29;;;;;;;13.80;3.25;;;;;;;17.29;39.22;93056.69;5103769;28;20036;-73
2024/04/04 07:48:56;;;;;;;10.55;3.15;;;;;;;17.66;36.43;93030.78;5092616;28;20078;-73
2024/04/04 07:51:22;;;;;;;9.55;2.35;;;;;;;17.67;37.03;93042.75;5099964;28;20106;-73
2024/04/04 07:53:49;;;;;;;14.65;2.97;;;;;;;18.09;35.40;93070.34;5089268;28;20093;-73
2024/04/04 07:56:16;;;;;;;7.05;2.25;;;;;;;17.95;36.89;93057.06;5093389;28;20143;-73
2024/04/04 07:58:46;;;;;;;8.13;1.95;;;;;;;17.42;36.27;93033.84;5089911;28;20024;-73
2024/04/04 08:01:12;;;;;;;9.20;2.47;;;;;;;17.96;37.72;93065.63;5089767;28;20036;-73
2024/04/04 08:03:37;;;;;;;9.48;3.40;;;;;;;17.16;36.87;93054.53;5094046;28;20532;-73
2024/04/04 08:06:04;;;;;;;3.70;1.63;;;;;;;17.46;38.63;93040.88;5089840;28;20039;-73
2024/04/04 08:08:29;;;;;;;6.93;1.70;;;;;;;17.93;38.14;93047.94;5089214;28;20051;-73
2024/04/04 08:10:55;;;;;;;4.18;1.83;;;;;;;18.26;37.11;93080.50;5092109;28;20546;-73
2024/04/04 08:13:21;;;;;;;3.50;1.63;;;;;;;17.35;37.74;93073.03;5103586;28;20495;-73
2024/04/04 08:15:50;;;;;;;5.55;1.77;;;;;;;17.60;37.55;93061.94;5103854;28;20063;-73
2024/04/04 08:18:17;;;;;;;6.72;2.05;;;;;;;17.73;38.69;93036.53;5094393;28;20040;-73
2024/04/04 08:20:47;;;;;;;5.40;2.10;;;;;;;17.10;38.46;93066.72;5089168;28;20055;-72
2024/04/04 08:23:13;;;;;;;8.05;2.33;;;;;;;16.94;38.42;93061.44;5088934;28;20120;-72
2024/04/04 08:25:40;;;;;;;4.40;1.90;;;;;;;17.10;39.43;93064.13;5089636;28;20408;-72
2024/04/04 08:28:06;;;;;;;3.53;1.42;;;;;;;16.88;39.77;93048.69;5089166;28;20031;-73
2024/04/04 08:30:32;;;;;;;7.53;1.80;;;;;;;17.46;38.94;93074.63;5088790;28;20028;-73
2024/04/04 08:32:58;;;;;;;4.22;1.65;;;;;;;17.19;38.78;93075.59;5092650;28;20038;-73
2024/04/04 08:35:24;;;;;;;6.45;2.13;;;;;;;17.97;38.24;93080.94;5088461;28;20382;-73
2024/04/04 08:37:49;;;;;;;7.70;1.85;;;;;;;17.59;38.53;93016.22;5088842;28;20121;-72
2024/04/04 08:40:15;;;;;;;4.43;1.48;;;;;;;17.81;38.59;93045.63;5089117;28;20043;-73
2024/04/04 08:42:42;;;;;;;5.50;1.92;;;;;;;18.32;38.78;93078.66;5097015;28;20488;-73
2024/04/04 08:45:15;;;;;;;4.18;1.80;;;;;;;17.97;40.89;93075.00;5106556;28;20445;-73
2024/04/04 08:47:42;;;;;;;5.85;1.63;;;;;;;17.17;40.08;93074.28;5103685;28;20028;-73
2024/04/04 08:50:08;;;;;;;3.33;1.52;;;;;;;17.43;40.60;93076.97;5096736;28;20039;-73
2024/04/04 08:52:34;;;;;;;9.20;1.98;;;;;;;17.33;40.01;93062.94;5088468;28;20032;-73
2024/04/04 08:55:00;;;;;;;8.07;2.13;;;;;;;17.84;40.89;93065.88;5102722;28;20058;-73
2024/04/04 08:57:26;;;;;;;3.95;1.77;;;;;;;18.55;39.66;93037.53;5088692;28;20031;-73
2024/04/04 08:59:58;;;;;;;6.80;1.40;;;;;;;19.27;38.50;93056.59;5088344;28;20477;-73
2024/04/04 09:02:23;;;;;;;5.50;1.60;;;;;;;19.85;38.01;93061.22;5088448;28;20036;-73
2024/04/04 09:04:49;;;;;;;4.45;1.38;;;;;;;20.11;36.65;93029.00;5094527;28;20028;-73
2024/04/04 09:07:15;;;;;;;3.60;1.33;;;;;;;19.87;37.78;93059.13;5091027;28;20386;-73
2024/04/04 09:09:45;;;;;;;8.60;2.15;;;;;;;19.59;39.01;93037.16;5088816;28;20032;-73
2024/04/04 09:12:11;;;;;;;7.65;2.08;;;;;;;20.14;38.07;93052.69;5092331;28;20031;-73
2024/04/04 09:14:37;;;;;;;7.80;1.42;;;;;;;20.52;36.64;93035.69;5088632;28;20043;-73
2024/04/04 09:17:03;;;;;;;7.43;1.90;;;;;;;20.84;36.08;93047.38;5093274;28;20401;-73
2024/04/04 09:19:29;;;;;;;3.53;1.60;;;;;;;20.52;36.56;93023.44;5092259;28;20047;-73
2024/04/04 09:21:55;;;;;;;12.05;2.38;;;;;;;21.01;36.21;93046.19;5093988;28;20042;-73
2024/04/04 09:24:20;;;;;;;;;;;;;;;21.33;35.88;93040.28;5094303;28;20062;-73
2024/04/04 09:26:49;;;;;;;6.93;1.70;;;;;;;20.85;36.30;93007.19;5091793;28;20300;-73
2024/04/04 09:29:16;;;;;;;5.72;1.65;;;;;;;21.14;35.84;93008.13;5089654;28;20104;-73
2024/04/04 09:31:43;;;;;;;3.05;1.20;;;;;;;21.57;35.67;93018.53;5091187;28;20015;-73
2024/04/04 09:34:10;;;;;;;5.25;1.48;;;;;;;21.55;34.22;93004.22;5095827;28;20497;-73
2024/04/04 09:36:37;;;;;;;4.30;1.15;;;;;;;21.65;34.76;93011.91;5095242;28;20044;-73
2024/04/04 09:39:08;;;;;;;6.32;1.50;;;;;;;22.12;34.38;93024.31;5093424;28;20064;-73
2024/04/04 09:41:37;;;;;;;2.08;0.90;;;;;;;20.96;34.48;93010.44;5095039;28;20500;-73
2024/04/04 09:44:05;;;;;;;2.97;1.40;;;;;;;21.27;34.34;93006.69;5094105;28;20421;-73
2024/04/04 09:46:34;;;;;;;5.13;1.35;;;;;;;21.34;34.15;93033.25;5093043;28;20039;-73
2024/04/04 09:49:00;;;;;;;4.20;1.40;;;;;;;21.62;35.12;93034.16;5093208;28;20039;-73
2024/04/04 09:51:26;;;;;;;;;;;;;;;21.80;32.70;93031.84;5090207;28;20042;-73
2024/04/04 09:53:53;;;;;;;4.95;1.65;;;;;;;21.54;33.32;93039.25;5090107;28;19916;-73
2024/04/04 09:56:20;;;;;;;4.93;1.40;;;;;;;21.96;33.17;93036.84;5090162;28;20627;-73
2024/04/04 09:58:47;;;;;;;3.45;1.30;;;;;;;21.92;32.99;93034.03;5085477;28;20040;-73
2024/04/04 10:01:26;;;;;;;3.83;1.25;;;;;;;21.98;31.46;93008.59;5091710;28;20031;-73
2024/04/04 10:03:59;;;;;;;2.90;1.17;;;;;;;21.44;32.63;93024.50;5089767;28;20032;-73
2024/04/04 10:06:29;;;;;;;5.28;1.50;;;;;;;20.24;33.92;93031.00;5090562;28;20111;-73
2024/04/04 10:08:58;;;;;;;3.45;1.20;;;;;;;20.56;33.34;93041.91;5092813;28;20244;-73
2024/04/04 10:11:30;;;;;;;2.22;1.02;;;;;;;19.46;33.34;93039.31;5085422;28;20040;-73
2024/04/04 10:14:01;;;;;;;3.75;1.20;;;;;;;19.18;34.20;93025.94;5088425;28;20058;-73
2024/04/04 10:16:35;;;;;;;4.03;1.23;;;;;;;19.37;33.50;92983.63;5090449;28;20378;-73
2024/04/04 10:19:23;;;;;;;11.40;5.93;;;;;;;19.66;33.13;93008.97;5088422;28;20031;-73
2024/04/04 10:21:49;;;;;;;5.43;2.75;;;;;;;20.07;32.51;93034.00;5088467;28;20024;-74
2024/04/04 10:24:28;;;;;;;3.50;1.30;;;;;;;19.03;34.75;92995.50;5089056;28;20513;-73
2024/04/04 10:26:59;;;;;;;3.08;1.48;;;;;;;19.93;36.05;92973.84;5090538;28;20846;-73
2024/04/04 10:29:38;;;;;;;2.83;1.25;;;;;;;20.19;32.98;92988.53;5091681;28;20027;-74
2024/04/04 10:32:08;;;;;;;2.55;1.17;;;;;;;19.81;34.26;93018.50;5087720;28;20115;-73
2024/04/04 10:34:34;;;;;;;2.92;1.15;;;;;;;18.77;34.39;93018.22;5090132;28;20062;-73
2024/04/04 10:36:59;;;;;;;;;;;;;;;19.44;34.29;93030.97;5093087;28;20032;-72
2024/04/04 10:39:25;;;;;;;7.57;2.38;;;;;;;19.42;34.57;93019.28;5094121;28;19935;-73
2024/04/04 10:41:52;;;;;;;3.13;1.35;;;;;;;19.66;35.47;93022.00;5093514;28;20031;-73
2024/04/04 10:44:19;;;;;;;3.42;1.05;;;;;;;19.81;35.47;92987.22;5089122;28;20044;-73
2024/04/04 10:46:48;;;;;;;4.03;1.10;;;;;;;20.58;32.79;93015.53;5089244;28;20078;-73
2024/04/04 10:49:16;;;;;;;4.85;1.08;;;;;;;20.09;33.27;92986.78;5090456;28;20043;-73
2024/04/04 10:51:54;;;;;;;2.17;1.00;;;;;;;20.32;32.71;93015.78;5087451;28;20077;-73
2024/04/04 10:54:21;;;;;;;3.50;1.10;;;;;;;19.21;33.18;93004.53;5074458;28;20074;-73
2024/04/04 10:56:50;;;;;;;4.30;1.40;;;;;;;19.09;32.56;93012.69;5093839;28;20101;-74
2024/04/04 10:59:18;;;;;;;4.43;1.20;;;;;;;19.50;35.34;92987.47;5093678;28;20926;-74
2024/04/04 11:01:48;;;;;;;5.72;1.00;;;;;;;18.81;34.50;92988.81;5096779;28;20408;-73
2024/04/04 11:04:14;;;;;;;2.83;1.05;;;;;;;18.74;35.38;93006.53;5091743;28;20027;-73
2024/04/04 11:06:43;;;;;;;3.25;0.98;;;;;;;19.31;35.27;93024.53;5093720;28;20116;-73
2024/04/04 11:09:20;;;;;;;3.40;1.10;;;;;;;19.09;36.23;92962.44;5094389;28;20124;-74
2024/04/04 11:11:51;;;;;;;3.17;1.30;;;;;;;19.22;33.58;92980.06;5092459;28;20456;-73
2024/04/04 11:14:24;;;;;;;2.95;1.42;;;;;;;18.88;34.15;93013.78;5092649;28;20367;-73
2024/04/04 11:16:54;;;;;;;3.63;1.33;;;;;;;18.50;34.23;92981.13;5092640;28;20032;-72
2024/04/04 11:19:21;;;;;;;2.50;1.10;;;;;;;19.07;33.40;93011.41;5096506;28;20066;-73
2024/04/04 11:21:49;;;;;;;1.52;0.80;;;;;;;19.29;34.43;93018.81;5092279;28;20042;-72
2024/04/04 11:24:15;;;;;;;4.80;2.85;;;;;;;18.44;33.39;92992.56;5094866;28;20028;-73
2024/04/04 11:26:41;;;;;;;2.92;1.48;;;;;;;18.44;33.72;92982.16;5093487;27;20027;-72
2024/04/04 11:29:07;;;;;;;3.38;1.73;;;;;;;18.51;34.77;92987.09;5097032;28;20127;-72
2024/04/04 11:31:32;;;;;;;6.55;1.58;;;;;;;18.64;36.05;92977.94;5091820;28;20062;-72